createdAt,value
2022-08-03T00:21:16.742Z,13.30
2022-08-03T00:22:19.120Z,13.40
2022-08-03T00:23:22.358Z,13.50
2022-08-03T00:24:24.664Z,13.40
2022-08-03T00:25:34.491Z,13.50
2022-08-03T00:26:43.467Z,13.50
2022-08-03T00:27:48.384Z,13.50
2022-08-03T00:28:52.751Z,13.50
2022-08-03T00:29:59.319Z,13.60
2022-08-03T00:31:02.697Z,13.50
2022-08-03T00:32:14.769Z,13.60
2022-08-03T00:33:20.035Z,13.50
2022-08-03T00:34:35.244Z,13.50
2022-08-03T00:35:50.725Z,13.50
2022-08-03T00:36:53.487Z,13.60
2022-08-03T00:38:03.483Z,13.50
2022-08-03T00:39:05.764Z,13.60
2022-08-03T00:40:10.028Z,13.60
2022-08-03T00:41:19.534Z,13.60
2022-08-03T00:42:21.948Z,13.60
2022-08-03T00:43:31.847Z,13.60
2022-08-03T00:44:40.286Z,13.60
2022-08-03T00:45:44.703Z,13.60
2022-08-03T00:46:53.482Z,13.60
2022-08-03T00:47:58.802Z,13.60
2022-08-03T00:49:01.255Z,13.60
2022-08-03T00:50:05.393Z,13.60
2022-08-03T00:51:08.834Z,13.60
2022-08-03T00:52:18.539Z,13.60
2022-08-03T00:53:22.072Z,13.60
2022-08-03T00:54:26.025Z,13.70
2022-08-03T00:55:30.027Z,13.70
2022-08-03T00:56:32.551Z,13.70
2022-08-03T00:57:42.458Z,13.60
2022-08-03T00:58:47.322Z,13.60
2022-08-03T00:59:49.731Z,13.60
2022-08-03T01:00:53.228Z,13.60
2022-08-03T01:01:55.899Z,13.60
2022-08-03T01:03:07.533Z,13.70
2022-08-03T01:04:09.948Z,13.70
2022-08-03T01:05:13.295Z,13.70
2022-08-03T01:06:18.675Z,13.70
2022-08-03T01:07:31.852Z,13.60
2022-08-03T01:08:50.500Z,13.70
2022-08-03T01:10:01.012Z,13.80
2022-08-03T01:11:12.933Z,13.70
2022-08-03T01:12:42.486Z,13.70
2022-08-03T01:14:04.460Z,13.70
2022-08-03T01:15:36.494Z,13.80
2022-08-03T01:16:45.650Z,13.70
2022-08-03T01:17:57.681Z,13.70
2022-08-03T01:19:20.492Z,13.80
2022-08-03T01:20:31.493Z,13.80
2022-08-03T01:21:41.779Z,13.80
2022-08-03T01:23:22.242Z,13.80
2022-08-03T01:24:41.540Z,13.80
2022-08-03T01:26:09.931Z,13.80
2022-08-03T01:27:18.005Z,13.90
2022-08-03T01:28:35.067Z,13.80
2022-08-03T01:30:10.499Z,13.80
2022-08-03T01:31:25.488Z,13.80
2022-08-03T01:33:02.384Z,13.90
2022-08-03T01:34:04.471Z,13.90
2022-08-03T01:35:14.580Z,13.90
2022-08-03T01:36:29.498Z,13.90
2022-08-03T01:37:39.880Z,14.00
2022-08-03T01:38:47.657Z,14.00
2022-08-03T01:39:52.016Z,14.00
2022-08-03T01:40:58.999Z,14.00
2022-08-03T01:42:12.509Z,14.00
2022-08-03T01:44:26.862Z,14.00
2022-08-03T01:44:43.983Z,14.10
2022-08-03T01:45:49.479Z,14.00
2022-08-03T01:46:59.509Z,14.10
2022-08-03T01:48:03.962Z,14.00
2022-08-03T01:49:09.653Z,14.10
2022-08-03T01:50:14.413Z,14.10
2022-08-03T01:52:03.076Z,14.20
2022-08-03T01:52:51.825Z,14.10
2022-08-03T01:53:54.982Z,14.20
2022-08-03T01:55:00.224Z,14.10
2022-08-03T01:56:03.958Z,14.10
2022-08-03T01:57:14.497Z,14.10
2022-08-03T01:58:21.202Z,14.10
2022-08-03T01:59:25.908Z,14.20
2022-08-03T02:00:29.407Z,14.10
2022-08-03T02:02:16.023Z,14.20
2022-08-03T02:03:05.526Z,14.30
2022-08-03T02:04:09.229Z,14.20
2022-08-03T02:05:14.634Z,14.20
2022-08-03T02:07:01.305Z,14.20
2022-08-03T02:07:51.591Z,14.20
2022-08-03T02:08:55.817Z,14.30
2022-08-03T02:10:01.185Z,14.20
2022-08-03T02:11:04.616Z,14.20
2022-08-03T02:12:30.509Z,14.30
2022-08-03T02:13:41.618Z,14.30
2022-08-03T02:14:47.033Z,14.30
2022-08-03T02:15:50.276Z,14.20
2022-08-03T02:16:56.271Z,14.30
2022-08-03T02:18:06.481Z,14.20
2022-08-03T02:19:17.561Z,14.20
2022-08-03T02:20:21.395Z,14.20
2022-08-03T02:21:57.494Z,14.20
2022-08-03T02:22:48.432Z,14.20
2022-08-03T02:23:52.659Z,14.30
2022-08-03T02:25:02.578Z,14.20
2022-08-03T02:26:09.623Z,14.20
2022-08-03T02:27:20.850Z,14.20
2022-08-03T02:28:35.302Z,14.30
2022-08-03T02:29:43.022Z,14.30
2022-08-03T02:30:57.500Z,14.40
2022-08-03T02:32:04.510Z,14.40
2022-08-03T02:33:12.471Z,14.30
2022-08-03T02:34:16.159Z,14.40
2022-08-03T02:35:28.523Z,14.40
2022-08-03T02:36:35.213Z,14.40
2022-08-03T02:37:45.032Z,14.40
2022-08-03T02:38:55.242Z,14.40
2022-08-03T02:40:04.483Z,14.40
2022-08-03T02:41:19.509Z,14.40
2022-08-03T02:42:25.825Z,14.50
2022-08-03T02:43:56.773Z,14.40
2022-08-03T02:44:58.671Z,14.40
2022-08-03T02:46:07.545Z,14.40
2022-08-03T02:47:15.554Z,14.40
2022-08-03T02:48:20.608Z,14.40
2022-08-03T02:49:41.421Z,14.40
2022-08-03T02:50:49.854Z,14.40
2022-08-03T02:52:00.531Z,14.40
2022-08-03T02:53:05.466Z,14.40
2022-08-03T02:54:10.867Z,14.50
2022-08-03T02:55:16.090Z,14.40
2022-08-03T02:56:25.521Z,14.50
2022-08-03T02:57:30.973Z,14.50
2022-08-03T02:58:34.897Z,14.60
2022-08-03T02:59:40.080Z,14.60
2022-08-03T03:00:45.036Z,14.50
2022-08-03T03:01:55.539Z,14.60
2022-08-03T03:03:02.555Z,14.60
2022-08-03T03:04:07.393Z,14.70
2022-08-03T03:05:53.596Z,14.60
2022-08-03T03:06:43.593Z,14.70
2022-08-03T03:07:53.217Z,14.70
2022-08-03T03:08:59.889Z,14.60
2022-08-03T03:10:04.110Z,14.60
2022-08-03T03:11:08.912Z,14.80
2022-08-03T03:12:20.540Z,14.70
2022-08-03T03:13:38.549Z,14.80
2022-08-03T03:14:41.222Z,14.70
2022-08-03T03:15:46.143Z,14.70
2022-08-03T03:16:50.676Z,14.70
2022-08-03T03:17:56.598Z,14.80
2022-08-03T03:19:08.543Z,14.90
2022-08-03T03:20:12.753Z,14.80
2022-08-03T03:21:24.523Z,14.80
2022-08-03T03:22:28.708Z,14.90
2022-08-03T03:23:32.114Z,14.90
2022-08-03T03:24:45.529Z,14.80
2022-08-03T03:25:48.732Z,15.00
2022-08-03T03:26:52.368Z,14.90
2022-08-03T03:27:54.812Z,15.00
2022-08-03T03:29:04.542Z,14.90
2022-08-03T03:30:09.119Z,15.00
2022-08-03T03:31:12.761Z,15.00
2022-08-03T03:32:15.426Z,14.90
2022-08-03T03:33:28.230Z,15.00
2022-08-03T03:34:32.568Z,15.00
2022-08-03T03:35:38.917Z,14.90
2022-08-03T03:36:49.522Z,14.90
2022-08-03T03:37:59.545Z,15.00
2022-08-03T03:39:15.995Z,15.00
2022-08-03T03:40:19.517Z,14.90
2022-08-03T03:41:22.808Z,15.00
2022-08-03T03:42:25.993Z,15.10
2022-08-03T03:43:30.546Z,15.10
2022-08-03T03:44:39.592Z,15.00
2022-08-03T03:45:43.494Z,15.10
2022-08-03T03:46:45.956Z,15.00
2022-08-03T03:47:49.507Z,15.20
2022-08-03T03:48:51.964Z,15.10
2022-08-03T03:50:05.617Z,15.20
2022-08-03T03:51:09.303Z,15.10
2022-08-03T03:52:11.621Z,15.30
2022-08-03T03:53:16.219Z,15.30
2022-08-03T03:54:18.595Z,15.10
2022-08-03T03:55:28.952Z,15.30
2022-08-03T03:56:31.367Z,15.20
2022-08-03T03:57:35.749Z,15.40
2022-08-03T03:58:38.059Z,15.30
2022-08-03T03:59:41.747Z,15.40
2022-08-03T04:00:51.576Z,15.30
2022-08-03T04:01:59.276Z,15.40
2022-08-03T04:03:01.896Z,15.50
2022-08-03T04:04:19.219Z,15.40
2022-08-03T04:05:46.035Z,15.40
2022-08-03T04:07:07.401Z,15.50
2022-08-03T04:08:30.830Z,15.60
2022-08-03T04:09:55.072Z,15.60
2022-08-03T04:11:15.591Z,15.60
2022-08-03T04:12:20.102Z,15.60
2022-08-03T04:13:30.702Z,15.60
2022-08-03T04:14:36.306Z,15.70
2022-08-03T04:15:47.588Z,15.70
2022-08-03T04:16:54.703Z,15.60
2022-08-03T04:17:59.420Z,15.70
2022-08-03T04:19:04.942Z,15.70
2022-08-03T04:20:08.250Z,15.80
2022-08-03T04:21:22.539Z,15.80
2022-08-03T04:22:35.556Z,15.80
2022-08-03T04:23:43.036Z,15.80
2022-08-03T04:24:50.752Z,16.00
2022-08-03T04:25:54.883Z,16.00
2022-08-03T04:27:00.332Z,16.10
2022-08-03T04:28:29.532Z,16.10
2022-08-03T04:29:36.085Z,16.00
2022-08-03T04:30:48.239Z,16.20
2022-08-03T04:31:59.600Z,16.20
2022-08-03T04:33:02.970Z,16.30
2022-08-03T04:34:07.120Z,16.40
2022-08-03T04:35:09.723Z,16.50
2022-08-03T04:36:20.739Z,16.50
2022-08-03T04:37:37.588Z,16.50
2022-08-03T04:38:53.933Z,16.50
2022-08-03T04:40:00.174Z,16.50
2022-08-03T04:41:04.078Z,16.70
2022-08-03T04:42:14.009Z,16.70
2022-08-03T04:43:25.633Z,16.80
2022-08-03T04:44:30.538Z,16.90
2022-08-03T04:45:34.365Z,16.80
2022-08-03T04:46:40.880Z,16.90
2022-08-03T04:47:53.637Z,17.00
2022-08-03T04:49:06.636Z,17.00
2022-08-03T04:50:12.970Z,17.20
2022-08-03T04:51:18.997Z,17.20
2022-08-03T04:52:21.411Z,17.20
2022-08-03T04:53:31.549Z,17.30
2022-08-03T04:54:50.516Z,17.30
2022-08-03T04:55:53.330Z,17.40
2022-08-03T04:56:56.565Z,17.40
2022-08-03T04:58:00.037Z,17.40
2022-08-03T04:59:09.590Z,17.60
2022-08-03T05:00:12.814Z,17.40
2022-08-03T05:01:17.000Z,17.50
2022-08-03T05:02:19.657Z,17.60
2022-08-03T05:03:24.321Z,17.60
2022-08-03T05:04:33.624Z,17.60
2022-08-03T05:05:50.661Z,17.60
2022-08-03T05:06:55.935Z,17.60
2022-08-03T05:07:59.201Z,17.80
2022-08-03T05:09:04.233Z,17.70
2022-08-03T05:10:16.313Z,17.80
2022-08-03T05:11:19.360Z,17.80
2022-08-03T05:12:23.779Z,17.80
2022-08-03T05:13:46.548Z,17.80
2022-08-03T05:14:48.856Z,17.90
2022-08-03T05:15:59.589Z,17.90
2022-08-03T05:17:01.922Z,18.00
2022-08-03T05:18:05.369Z,18.00
2022-08-03T05:19:10.508Z,18.20
2022-08-03T05:20:13.855Z,18.20
2022-08-03T05:21:51.859Z,18.30
2022-08-03T05:22:52.079Z,18.30
2022-08-03T05:24:00.584Z,18.40
2022-08-03T05:25:05.006Z,18.40
2022-08-03T05:26:07.318Z,18.50
2022-08-03T05:27:12.660Z,18.50
2022-08-03T05:28:15.900Z,18.60
2022-08-03T05:29:24.611Z,18.50
2022-08-03T05:30:33.900Z,18.60
2022-08-03T05:31:43.566Z,18.70
2022-08-03T05:32:46.909Z,18.80
2022-08-03T05:33:49.406Z,18.80
2022-08-03T05:34:52.672Z,18.80
2022-08-03T05:36:04.300Z,18.90
2022-08-03T05:37:08.371Z,18.90
2022-08-03T05:38:12.828Z,18.90
2022-08-03T05:39:16.082Z,18.90
2022-08-03T05:40:25.616Z,18.90
2022-08-03T05:41:37.071Z,19.00
2022-08-03T05:42:40.265Z,19.00
2022-08-03T05:43:43.720Z,19.10
2022-08-03T05:44:46.001Z,19.10
2022-08-03T05:46:12.172Z,19.10
2022-08-03T05:47:22.598Z,19.00
2022-08-03T05:48:24.960Z,19.20
2022-08-03T05:49:28.292Z,19.10
2022-08-03T05:50:30.676Z,19.10
2022-08-03T05:51:40.594Z,19.20
2022-08-03T05:52:43.581Z,19.20
2022-08-03T05:53:48.321Z,19.20
2022-08-03T05:54:56.374Z,19.20
2022-08-03T05:56:03.495Z,19.10
2022-08-03T05:57:25.678Z,19.10
2022-08-03T05:58:29.980Z,19.10
2022-08-03T05:59:38.448Z,19.10
2022-08-03T06:00:41.215Z,19.10
2022-08-03T06:01:50.877Z,19.20
2022-08-03T06:02:53.227Z,19.20
2022-08-03T06:03:56.535Z,19.20
2022-08-03T06:04:59.046Z,19.20
2022-08-03T06:06:02.657Z,19.40
2022-08-03T06:07:12.590Z,19.30
2022-08-03T06:08:15.402Z,19.30
2022-08-03T06:09:20.277Z,19.40
2022-08-03T06:10:36.657Z,19.40
2022-08-03T06:11:42.173Z,19.50
2022-08-03T06:12:54.586Z,19.60
2022-08-03T06:14:05.080Z,19.60
2022-08-03T06:15:11.390Z,19.60
2022-08-03T06:16:15.009Z,19.60
2022-08-03T06:17:24.694Z,19.70
2022-08-03T06:18:30.176Z,19.70
2022-08-03T06:19:34.815Z,19.80
2022-08-03T06:20:37.155Z,19.80
2022-08-03T06:21:40.906Z,19.90
2022-08-03T06:22:51.033Z,20.00
2022-08-03T06:24:03.670Z,20.00
2022-08-03T06:25:16.595Z,19.90
2022-08-03T06:26:29.155Z,20.00
2022-08-03T06:27:37.062Z,20.00
2022-08-03T06:28:53.165Z,20.10
2022-08-03T06:29:57.102Z,20.10
2022-08-03T06:30:59.806Z,20.20
2022-08-03T06:32:03.029Z,20.20
2022-08-03T06:33:05.265Z,20.30
2022-08-03T06:34:34.303Z,20.30
2022-08-03T06:35:39.846Z,20.40
2022-08-03T06:36:44.779Z,20.50
2022-08-03T06:37:50.128Z,20.50
2022-08-03T06:38:58.617Z,20.50
2022-08-03T06:40:01.837Z,20.60
2022-08-03T06:41:05.417Z,20.70
2022-08-03T06:42:09.885Z,20.70
2022-08-03T06:43:14.917Z,20.80
2022-08-03T06:44:26.683Z,20.90
2022-08-03T06:45:31.821Z,21.00
2022-08-03T06:46:35.678Z,21.00
2022-08-03T06:47:38.655Z,21.00
2022-08-03T06:48:48.226Z,21.10
2022-08-03T06:50:16.362Z,21.20
2022-08-03T06:51:19.811Z,21.30
2022-08-03T06:52:37.640Z,21.40
2022-08-03T06:53:41.490Z,21.40
2022-08-03T06:54:57.688Z,21.50
2022-08-03T06:56:00.941Z,21.60
2022-08-03T06:57:13.187Z,21.70
2022-08-03T06:58:15.528Z,21.70
2022-08-03T07:00:10.939Z,21.90
2022-08-03T07:00:48.622Z,21.90
2022-08-03T07:01:51.005Z,22.00
2022-08-03T07:02:58.266Z,22.10
2022-08-03T07:04:01.298Z,22.10
2022-08-03T07:05:05.040Z,22.20
2022-08-03T07:06:14.638Z,22.30
2022-08-03T07:07:17.843Z,22.30
2022-08-03T07:08:34.064Z,22.40
2022-08-03T07:09:36.788Z,22.50
2022-08-03T07:10:46.615Z,22.50
2022-08-03T07:11:48.948Z,22.50
2022-08-03T07:13:13.618Z,22.60
2022-08-03T07:14:16.058Z,22.60
2022-08-03T07:15:20.639Z,22.70
2022-08-03T07:16:48.628Z,22.70
2022-08-03T07:17:58.647Z,22.80
2022-08-03T07:19:00.928Z,22.90
2022-08-03T07:20:08.021Z,22.90
2022-08-03T07:21:11.071Z,22.90
2022-08-03T07:22:14.259Z,23.00
2022-08-03T07:23:22.627Z,23.00
2022-08-03T07:24:25.909Z,23.10
2022-08-03T07:25:30.774Z,23.10
2022-08-03T07:26:34.008Z,23.20
2022-08-03T07:27:36.473Z,23.20
2022-08-03T07:28:47.635Z,23.30
2022-08-03T07:29:49.921Z,23.40
2022-08-03T07:30:53.262Z,23.40
2022-08-03T07:31:55.734Z,23.40
2022-08-03T07:32:58.977Z,23.40
2022-08-03T07:34:08.638Z,23.40
2022-08-03T07:35:16.919Z,23.50
2022-08-03T07:36:28.478Z,23.50
2022-08-03T07:37:32.204Z,23.60
2022-08-03T07:38:42.638Z,23.70
2022-08-03T07:39:45.938Z,23.70
2022-08-03T07:40:48.422Z,23.80
2022-08-03T07:41:51.979Z,23.80
2022-08-03T07:42:54.291Z,23.90
2022-08-03T07:44:05.648Z,24.00
2022-08-03T07:45:16.586Z,24.00
2022-08-03T07:46:19.285Z,24.20
2022-08-03T07:47:24.835Z,24.20
2022-08-03T07:48:33.655Z,24.30
2022-08-03T07:49:41.800Z,24.30
2022-08-03T07:50:44.958Z,24.40
2022-08-03T07:52:08.136Z,24.50
2022-08-03T07:53:11.390Z,24.60
2022-08-03T07:54:20.828Z,24.60
2022-08-03T07:55:26.542Z,24.60
2022-08-03T07:56:29.307Z,24.70
2022-08-03T07:57:32.798Z,24.80
2022-08-03T07:58:44.780Z,24.70
2022-08-03T07:59:56.816Z,24.80
2022-08-03T08:01:11.687Z,24.80
2022-08-03T08:02:26.777Z,24.90
2022-08-03T08:03:52.952Z,25.00
2022-08-03T08:04:53.616Z,25.10
2022-08-03T08:06:03.640Z,25.10
2022-08-03T08:07:10.353Z,25.10
2022-08-03T08:08:40.574Z,25.20
2022-08-03T08:09:43.012Z,25.20
2022-08-03T08:10:58.137Z,25.30
2022-08-03T08:12:07.729Z,25.40
2022-08-03T08:13:38.609Z,25.50
2022-08-03T08:14:41.841Z,25.50
2022-08-03T08:15:46.285Z,25.60
2022-08-03T08:16:56.645Z,25.60
2022-08-03T08:18:02.513Z,25.60
2022-08-03T08:19:05.811Z,25.80
2022-08-03T08:20:10.270Z,25.80
2022-08-03T08:21:12.554Z,25.70
2022-08-03T08:22:29.796Z,25.80
2022-08-03T08:23:42.051Z,25.80
2022-08-03T08:24:48.501Z,25.80
2022-08-03T08:26:03.864Z,25.90
2022-08-03T08:27:06.328Z,26.00
2022-08-03T08:28:29.786Z,26.10
2022-08-03T08:29:35.158Z,26.10
2022-08-03T08:30:37.482Z,26.10
2022-08-03T08:31:41.919Z,26.20
2022-08-03T08:32:52.261Z,26.30
2022-08-03T08:34:04.293Z,26.40
2022-08-03T08:35:09.299Z,26.20
2022-08-03T08:36:15.578Z,26.30
2022-08-03T08:37:18.127Z,26.40
2022-08-03T08:38:27.641Z,26.50
2022-08-03T08:39:29.908Z,26.50
2022-08-03T08:40:33.474Z,26.60
2022-08-03T08:41:36.225Z,26.60
2022-08-03T08:42:47.913Z,26.60
2022-08-03T08:44:09.295Z,26.60
2022-08-03T08:45:14.982Z,26.70
2022-08-03T08:46:28.735Z,26.70
2022-08-03T08:47:51.199Z,26.80
2022-08-03T08:49:05.215Z,26.80
2022-08-03T08:50:27.360Z,26.90
2022-08-03T08:51:54.614Z,27.00
2022-08-03T08:53:03.867Z,26.90
2022-08-03T08:54:15.689Z,27.00
2022-08-03T08:55:24.884Z,27.00
2022-08-03T08:56:27.425Z,27.00
2022-08-03T08:57:42.765Z,27.10
2022-08-03T08:58:52.355Z,27.10
2022-08-03T09:00:03.675Z,27.20
2022-08-03T09:01:07.039Z,27.20
2022-08-03T09:02:09.781Z,27.20
2022-08-03T09:03:29.750Z,27.10
2022-08-03T09:04:39.818Z,27.10
2022-08-03T09:05:55.760Z,27.20
2022-08-03T09:07:19.141Z,27.30
2022-08-03T09:08:23.953Z,27.30
2022-08-03T09:10:04.813Z,27.20
2022-08-03T09:10:56.700Z,27.20
2022-08-03T09:12:20.900Z,27.30
2022-08-03T09:13:44.666Z,27.30
2022-08-03T09:15:07.404Z,27.20
2022-08-03T09:16:21.685Z,27.30
2022-08-03T09:17:24.935Z,27.40
2022-08-03T09:18:32.450Z,27.40
2022-08-03T09:19:37.046Z,27.40
2022-08-03T09:20:47.705Z,27.60
2022-08-03T09:22:09.778Z,27.70
2022-08-03T09:23:58.948Z,27.70
2022-08-03T09:24:41.540Z,27.70
2022-08-03T09:25:52.689Z,27.90
2022-08-03T09:26:55.966Z,28.10
2022-08-03T09:28:07.260Z,28.30
2022-08-03T09:29:15.634Z,28.30
2022-08-03T09:30:34.487Z,28.40
2022-08-03T09:31:47.103Z,28.40
2022-08-03T09:32:49.937Z,28.40
2022-08-03T09:33:59.829Z,28.50
2022-08-03T09:35:09.518Z,28.50
2022-08-03T09:36:35.002Z,28.30
2022-08-03T09:38:08.569Z,28.30
2022-08-03T09:39:11.989Z,28.40
2022-08-03T09:40:36.315Z,28.40
2022-08-03T09:41:40.028Z,28.40
2022-08-03T09:43:04.726Z,28.10
2022-08-03T09:44:25.157Z,28.00
2022-08-03T09:45:30.055Z,28.00
2022-08-03T09:46:33.316Z,28.10
2022-08-03T09:47:44.976Z,28.20
2022-08-03T09:48:47.607Z,28.20
2022-08-03T09:51:14.041Z,28.40
2022-08-03T09:52:39.058Z,28.70
2022-08-03T09:54:00.077Z,28.60
2022-08-03T09:55:23.412Z,28.70
2022-08-03T09:56:48.440Z,28.70
2022-08-03T09:57:51.747Z,28.60
2022-08-03T09:58:54.105Z,28.70
2022-08-03T10:00:16.694Z,28.80
2022-08-03T10:01:24.425Z,28.80
2022-08-03T10:02:29.368Z,29.10
2022-08-03T10:04:03.481Z,29.00
2022-08-03T10:05:08.318Z,29.20
2022-08-03T10:06:19.445Z,29.20
2022-08-03T10:07:24.072Z,29.10
2022-08-03T10:08:26.573Z,29.10
2022-08-03T10:11:00.730Z,29.20
2022-08-03T10:12:12.778Z,29.20
2022-08-03T10:13:18.753Z,29.40
2022-08-03T10:14:23.331Z,29.40
2022-08-03T10:16:24.017Z,29.50
2022-08-03T10:17:58.489Z,29.40
2022-08-03T10:19:01.795Z,29.60
2022-08-03T10:24:40.472Z,29.70
2022-08-03T10:33:50.955Z,29.30
2022-08-03T10:35:00.336Z,29.00
2022-08-03T10:36:09.791Z,28.80
2022-08-03T10:37:21.763Z,28.70
2022-08-03T10:38:39.681Z,28.70
2022-08-03T10:39:53.425Z,28.80
2022-08-03T10:49:49.929Z,30.30
2022-08-03T10:50:53.154Z,30.60
2022-08-03T10:51:57.973Z,30.70
2022-08-03T10:54:12.764Z,30.70
2022-08-03T10:55:44.983Z,30.80
2022-08-03T10:59:00.710Z,30.50
2022-08-03T11:00:08.273Z,30.60
2022-08-03T11:01:13.553Z,30.30
2022-08-03T11:02:16.443Z,30.20
2022-08-03T11:03:20.112Z,30.30
2022-08-03T11:04:31.932Z,30.20
2022-08-03T11:05:38.352Z,30.10
2022-08-03T11:06:42.748Z,30.10
2022-08-03T11:07:54.630Z,30.00
2022-08-03T11:11:48.930Z,30.00
2022-08-03T11:18:31.549Z,30.10
2022-08-03T11:19:57.087Z,30.20
2022-08-03T11:21:09.912Z,30.10
2022-08-03T11:22:14.011Z,30.10
2022-08-03T11:23:20.230Z,30.20
2022-08-03T11:25:02.498Z,30.30
2022-08-03T11:26:33.794Z,30.40
2022-08-03T11:31:59.903Z,30.60
2022-08-03T11:33:03.536Z,30.60
2022-08-03T11:39:20.300Z,29.80
2022-08-03T11:40:35.022Z,30.00
2022-08-03T11:41:44.894Z,30.10
2022-08-03T11:42:55.767Z,30.10
2022-08-03T11:43:59.013Z,30.00
